sensor_id;sensor_type;location;lat;lon;timestamp;temperature;humidity
60353;DHT22;46196;52.970;6.954;2023-08-06T00:00:17;14.20;99.90
60353;DHT22;46196;52.970;6.954;2023-08-06T00:02:42;14.30;99.90
60353;DHT22;46196;52.970;6.954;2023-08-06T00:05:08;14.40;99.90
60353;DHT22;46196;52.970;6.954;2023-08-06T00:07:34;14.00;99.90
60353;DHT22;46196;52.970;6.954;2023-08-06T00:09:59;14.20;99.90
60353;DHT22;46196;52.970;6.954;2023-08-06T00:12:25;14.60;99.90
60353;DHT22;46196;52.970;6.954;2023-08-06T00:14:52;14.00;99.90
60353;DHT22;46196;52.970;6.954;2023-08-06T00:17:18;13.90;99.90
60353;DHT22;46196;52.970;6.954;2023-08-06T00:19:43;14.40;99.90
60353;DHT22;46196;52.970;6.954;2023-08-06T00:22:09;15.50;99.90
60353;DHT22;46196;52.970;6.954;2023-08-06T00:24:35;14.00;99.90
60353;DHT22;46196;52.970;6.954;2023-08-06T00:27:01;14.50;99.90
60353;DHT22;46196;52.970;6.954;2023-08-06T00:29:27;14.10;99.90
60353;DHT22;46196;52.970;6.954;2023-08-06T00:31:53;13.90;99.90
60353;DHT22;46196;52.970;6.954;2023-08-06T00:34:18;14.40;99.90
60353;DHT22;46196;52.970;6.954;2023-08-06T00:36:44;13.70;99.90
60353;DHT22;46196;52.970;6.954;2023-08-06T00:39:10;14.30;99.90
60353;DHT22;46196;52.970;6.954;2023-08-06T00:41:36;15.10;99.90
60353;DHT22;46196;52.970;6.954;2023-08-06T00:44:02;14.00;99.90
60353;DHT22;46196;52.970;6.954;2023-08-06T00:46:28;15.40;99.90
60353;DHT22;46196;52.970;6.954;2023-08-06T00:48:54;13.50;99.90
60353;DHT22;46196;52.970;6.954;2023-08-06T00:51:20;14.20;99.90
60353;DHT22;46196;52.970;6.954;2023-08-06T00:53:46;14.40;99.90
60353;DHT22;46196;52.970;6.954;2023-08-06T00:58:39;14.10;99.90
60353;DHT22;46196;52.970;6.954;2023-08-06T01:01:05;14.10;99.90
60353;DHT22;46196;52.970;6.954;2023-08-06T01:03:31;13.80;99.90
60353;DHT22;46196;52.970;6.954;2023-08-06T01:05:57;14.50;99.90
60353;DHT22;46196;52.970;6.954;2023-08-06T01:19:17;14.50;99.90
60353;DHT22;46196;52.970;6.954;2023-08-06T01:21:43;14.30;99.90
60353;DHT22;46196;52.970;6.954;2023-08-06T01:24:09;15.20;99.90
60353;DHT22;46196;52.970;6.954;2023-08-06T01:26:44;14.40;99.90
60353;DHT22;46196;52.970;6.954;2023-08-06T01:29:25;14.60;99.90
60353;DHT22;46196;52.970;6.954;2023-08-06T01:31:55;14.20;99.90
60353;DHT22;46196;52.970;6.954;2023-08-06T01:34:24;14.60;99.90
60353;DHT22;46196;52.970;6.954;2023-08-06T01:36:50;14.20;99.90
60353;DHT22;46196;52.970;6.954;2023-08-06T01:39:16;14.50;99.90
60353;DHT22;46196;52.970;6.954;2023-08-06T01:41:42;14.10;99.90
60353;DHT22;46196;52.970;6.954;2023-08-06T01:44:08;14.10;99.90
60353;DHT22;46196;52.970;6.954;2023-08-06T01:46:33;13.70;99.90
60353;DHT22;46196;52.970;6.954;2023-08-06T01:48:59;14.30;99.90
60353;DHT22;46196;52.970;6.954;2023-08-06T01:51:25;14.10;99.90
60353;DHT22;46196;52.970;6.954;2023-08-06T01:53:50;14.30;99.90
60353;DHT22;46196;52.970;6.954;2023-08-06T01:58:42;14.30;99.90
60353;DHT22;46196;52.970;6.954;2023-08-06T02:01:08;14.30;99.90
60353;DHT22;46196;52.970;6.954;2023-08-06T02:03:34;14.10;99.90
60353;DHT22;46196;52.970;6.954;2023-08-06T02:05:59;14.30;99.90
60353;DHT22;46196;52.970;6.954;2023-08-06T02:08:25;14.00;99.90
60353;DHT22;46196;52.970;6.954;2023-08-06T02:10:52;13.70;99.90
60353;DHT22;46196;52.970;6.954;2023-08-06T02:13:19;14.60;99.90
60353;DHT22;46196;52.970;6.954;2023-08-06T02:15:45;14.30;99.90
60353;DHT22;46196;52.970;6.954;2023-08-06T02:18:14;15.80;99.90
60353;DHT22;46196;52.970;6.954;2023-08-06T02:20:41;14.20;99.90
60353;DHT22;46196;52.970;6.954;2023-08-06T02:23:07;14.20;99.90
60353;DHT22;46196;52.970;6.954;2023-08-06T02:25:32;14.40;99.90
60353;DHT22;46196;52.970;6.954;2023-08-06T02:27:58;14.80;99.90
60353;DHT22;46196;52.970;6.954;2023-08-06T02:30:24;14.20;99.90
60353;DHT22;46196;52.970;6.954;2023-08-06T02:35:16;14.30;99.90
60353;DHT22;46196;52.970;6.954;2023-08-06T02:40:08;14.20;99.90
60353;DHT22;46196;52.970;6.954;2023-08-06T02:42:34;15.40;99.90
60353;DHT22;46196;52.970;6.954;2023-08-06T02:47:25;14.50;99.90
60353;DHT22;46196;52.970;6.954;2023-08-06T02:49:51;14.10;99.90
60353;DHT22;46196;52.970;6.954;2023-08-06T02:52:17;14.20;99.90
60353;DHT22;46196;52.970;6.954;2023-08-06T02:54:43;14.20;99.90
60353;DHT22;46196;52.970;6.954;2023-08-06T02:57:09;14.60;99.90
60353;DHT22;46196;52.970;6.954;2023-08-06T03:02:01;16.00;99.90
60353;DHT22;46196;52.970;6.954;2023-08-06T03:04:26;14.00;99.90
60353;DHT22;46196;52.970;6.954;2023-08-06T03:06:52;15.80;99.90
60353;DHT22;46196;52.970;6.954;2023-08-06T03:09:18;14.60;99.90
60353;DHT22;46196;52.970;6.954;2023-08-06T03:11:44;14.10;99.90
60353;DHT22;46196;52.970;6.954;2023-08-06T03:14:10;14.10;99.90
60353;DHT22;46196;52.970;6.954;2023-08-06T03:16:36;13.80;99.90
60353;DHT22;46196;52.970;6.954;2023-08-06T03:19:01;14.40;99.90
60353;DHT22;46196;52.970;6.954;2023-08-06T03:21:27;14.10;99.90
60353;DHT22;46196;52.970;6.954;2023-08-06T03:23:53;14.20;99.90
60353;DHT22;46196;52.970;6.954;2023-08-06T03:26:19;13.70;99.90
60353;DHT22;46196;52.970;6.954;2023-08-06T03:28:44;14.10;99.90
60353;DHT22;46196;52.970;6.954;2023-08-06T03:31:10;14.10;99.90
60353;DHT22;46196;52.970;6.954;2023-08-06T03:33:36;14.10;99.90
60353;DHT22;46196;52.970;6.954;2023-08-06T03:36:02;15.70;99.90
60353;DHT22;46196;52.970;6.954;2023-08-06T03:38:27;14.60;99.90
60353;DHT22;46196;52.970;6.954;2023-08-06T03:40:53;14.20;99.90
60353;DHT22;46196;52.970;6.954;2023-08-06T03:43:19;14.20;99.90
60353;DHT22;46196;52.970;6.954;2023-08-06T03:45:45;14.20;99.90
60353;DHT22;46196;52.970;6.954;2023-08-06T03:50:36;14.00;99.90
60353;DHT22;46196;52.970;6.954;2023-08-06T03:53:03;14.50;99.90
60353;DHT22;46196;52.970;6.954;2023-08-06T03:55:29;14.00;99.90
60353;DHT22;46196;52.970;6.954;2023-08-06T03:57:55;13.00;99.90
60353;DHT22;46196;52.970;6.954;2023-08-06T04:00:20;14.00;99.90
60353;DHT22;46196;52.970;6.954;2023-08-06T04:02:46;14.40;99.90
60353;DHT22;46196;52.970;6.954;2023-08-06T04:05:12;13.90;99.90
60353;DHT22;46196;52.970;6.954;2023-08-06T04:07:38;14.00;99.90
60353;DHT22;46196;52.970;6.954;2023-08-06T04:10:04;14.00;99.90
60353;DHT22;46196;52.970;6.954;2023-08-06T04:12:30;13.80;99.90
60353;DHT22;46196;52.970;6.954;2023-08-06T04:15:00;15.00;99.90
60353;DHT22;46196;52.970;6.954;2023-08-06T04:17:26;13.40;99.90
60353;DHT22;46196;52.970;6.954;2023-08-06T04:19:53;13.80;99.90
60353;DHT22;46196;52.970;6.954;2023-08-06T04:22:20;14.00;99.90
60353;DHT22;46196;52.970;6.954;2023-08-06T04:24:46;14.10;99.90
60353;DHT22;46196;52.970;6.954;2023-08-06T04:27:12;13.40;99.90
60353;DHT22;46196;52.970;6.954;2023-08-06T04:29:39;12.60;99.90
60353;DHT22;46196;52.970;6.954;2023-08-06T04:32:07;14.30;99.90
60353;DHT22;46196;52.970;6.954;2023-08-06T04:34:33;13.50;99.90
60353;DHT22;46196;52.970;6.954;2023-08-06T04:36:59;13.60;99.90
60353;DHT22;46196;52.970;6.954;2023-08-06T04:39:28;13.80;99.90
60353;DHT22;46196;52.970;6.954;2023-08-06T04:41:54;14.80;99.90
60353;DHT22;46196;52.970;6.954;2023-08-06T04:44:20;13.70;99.90
60353;DHT22;46196;52.970;6.954;2023-08-06T04:46:46;13.60;99.90
60353;DHT22;46196;52.970;6.954;2023-08-06T04:49:12;14.30;99.90
60353;DHT22;46196;52.970;6.954;2023-08-06T04:51:38;13.40;99.90
60353;DHT22;46196;52.970;6.954;2023-08-06T04:54:04;13.20;99.90
60353;DHT22;46196;52.970;6.954;2023-08-06T04:56:29;15.70;99.90
60353;DHT22;46196;52.970;6.954;2023-08-06T04:58:55;13.80;99.90
60353;DHT22;46196;52.970;6.954;2023-08-06T05:01:21;14.10;99.90
60353;DHT22;46196;52.970;6.954;2023-08-06T05:03:47;13.90;99.90
60353;DHT22;46196;52.970;6.954;2023-08-06T05:06:13;12.40;99.90
60353;DHT22;46196;52.970;6.954;2023-08-06T05:08:39;13.00;99.90
60353;DHT22;46196;52.970;6.954;2023-08-06T05:11:04;13.60;99.90
60353;DHT22;46196;52.970;6.954;2023-08-06T05:13:30;13.60;99.90
60353;DHT22;46196;52.970;6.954;2023-08-06T05:15:56;14.60;99.90
60353;DHT22;46196;52.970;6.954;2023-08-06T05:20:48;13.70;99.90
60353;DHT22;46196;52.970;6.954;2023-08-06T05:23:14;14.60;99.90
60353;DHT22;46196;52.970;6.954;2023-08-06T05:25:39;13.70;99.90
60353;DHT22;46196;52.970;6.954;2023-08-06T05:28:05;13.90;99.90
60353;DHT22;46196;52.970;6.954;2023-08-06T05:30:31;13.40;99.90
60353;DHT22;46196;52.970;6.954;2023-08-06T05:32:57;13.90;99.90
60353;DHT22;46196;52.970;6.954;2023-08-06T05:35:23;13.90;99.90
60353;DHT22;46196;52.970;6.954;2023-08-06T05:37:50;14.00;99.90
60353;DHT22;46196;52.970;6.954;2023-08-06T05:40:15;13.90;99.90
60353;DHT22;46196;52.970;6.954;2023-08-06T05:45:08;14.60;99.90
60353;DHT22;46196;52.970;6.954;2023-08-06T05:47:35;14.10;99.90
60353;DHT22;46196;52.970;6.954;2023-08-06T05:50:00;14.20;99.90
60353;DHT22;46196;52.970;6.954;2023-08-06T05:52:26;14.00;99.90
60353;DHT22;46196;52.970;6.954;2023-08-06T05:54:52;15.20;99.90
60353;DHT22;46196;52.970;6.954;2023-08-06T05:59:44;14.70;99.90
60353;DHT22;46196;52.970;6.954;2023-08-06T06:02:09;14.30;99.90
60353;DHT22;46196;52.970;6.954;2023-08-06T06:04:36;14.40;99.90
60353;DHT22;46196;52.970;6.954;2023-08-06T06:07:02;13.90;99.90
60353;DHT22;46196;52.970;6.954;2023-08-06T06:09:28;15.10;99.90
60353;DHT22;46196;52.970;6.954;2023-08-06T06:14:19;13.50;99.90
60353;DHT22;46196;52.970;6.954;2023-08-06T06:19:12;14.20;99.90
60353;DHT22;46196;52.970;6.954;2023-08-06T06:21:38;15.00;99.90
60353;DHT22;46196;52.970;6.954;2023-08-06T06:24:07;15.00;99.90
60353;DHT22;46196;52.970;6.954;2023-08-06T06:26:33;14.70;99.90
60353;DHT22;46196;52.970;6.954;2023-08-06T06:28:59;15.00;99.90
60353;DHT22;46196;52.970;6.954;2023-08-06T06:31:25;14.80;99.90
60353;DHT22;46196;52.970;6.954;2023-08-06T06:33:51;15.00;99.90
60353;DHT22;46196;52.970;6.954;2023-08-06T06:36:18;14.60;99.90
60353;DHT22;46196;52.970;6.954;2023-08-06T06:38:44;15.00;99.90
60353;DHT22;46196;52.970;6.954;2023-08-06T06:41:10;15.40;99.90
60353;DHT22;46196;52.970;6.954;2023-08-06T06:43:36;15.20;99.90
60353;DHT22;46196;52.970;6.954;2023-08-06T06:46:03;15.20;99.90
60353;DHT22;46196;52.970;6.954;2023-08-06T06:48:31;15.30;99.90
60353;DHT22;46196;52.970;6.954;2023-08-06T06:50:56;16.00;99.90
60353;DHT22;46196;52.970;6.954;2023-08-06T06:53:23;15.90;99.90
60353;DHT22;46196;52.970;6.954;2023-08-06T06:55:56;11.80;99.90
60353;DHT22;46196;52.970;6.954;2023-08-06T06:58:26;15.60;99.90
60353;DHT22;46196;52.970;6.954;2023-08-06T07:00:52;15.70;99.90
60353;DHT22;46196;52.970;6.954;2023-08-06T07:03:19;15.80;99.90
60353;DHT22;46196;52.970;6.954;2023-08-06T07:05:45;16.00;99.90
60353;DHT22;46196;52.970;6.954;2023-08-06T07:08:11;15.90;99.90
60353;DHT22;46196;52.970;6.954;2023-08-06T07:10:37;16.00;99.90
60353;DHT22;46196;52.970;6.954;2023-08-06T07:13:02;16.00;99.90
60353;DHT22;46196;52.970;6.954;2023-08-06T07:15:29;16.20;99.90
60353;DHT22;46196;52.970;6.954;2023-08-06T07:17:55;16.20;99.90
60353;DHT22;46196;52.970;6.954;2023-08-06T07:20:21;16.30;99.90
60353;DHT22;46196;52.970;6.954;2023-08-06T07:22:46;17.70;99.90
60353;DHT22;46196;52.970;6.954;2023-08-06T07:25:12;17.80;99.90
60353;DHT22;46196;52.970;6.954;2023-08-06T07:27:38;17.00;99.90
60353;DHT22;46196;52.970;6.954;2023-08-06T07:30:06;16.60;99.90
60353;DHT22;46196;52.970;6.954;2023-08-06T07:32:32;16.60;99.90
60353;DHT22;46196;52.970;6.954;2023-08-06T07:34:57;16.40;99.90
60353;DHT22;46196;52.970;6.954;2023-08-06T07:37:26;16.80;99.90
60353;DHT22;46196;52.970;6.954;2023-08-06T07:39:54;17.30;99.90
60353;DHT22;46196;52.970;6.954;2023-08-06T07:42:20;16.90;99.90
60353;DHT22;46196;52.970;6.954;2023-08-06T07:44:54;18.00;99.90
60353;DHT22;46196;52.970;6.954;2023-08-06T07:47:20;17.10;99.90
60353;DHT22;46196;52.970;6.954;2023-08-06T07:49:46;16.70;99.90
60353;DHT22;46196;52.970;6.954;2023-08-06T07:52:11;17.40;99.90
60353;DHT22;46196;52.970;6.954;2023-08-06T07:54:37;17.50;99.90
60353;DHT22;46196;52.970;6.954;2023-08-06T07:57:03;17.60;99.90
60353;DHT22;46196;52.970;6.954;2023-08-06T07:59:29;18.10;99.90
60353;DHT22;46196;52.970;6.954;2023-08-06T08:01:55;19.40;99.90
60353;DHT22;46196;52.970;6.954;2023-08-06T08:04:21;18.10;99.90
60353;DHT22;46196;52.970;6.954;2023-08-06T08:06:47;18.30;99.90
60353;DHT22;46196;52.970;6.954;2023-08-06T08:09:13;18.60;99.90
60353;DHT22;46196;52.970;6.954;2023-08-06T08:11:40;19.90;99.90
60353;DHT22;46196;52.970;6.954;2023-08-06T08:14:06;19.10;99.90
60353;DHT22;46196;52.970;6.954;2023-08-06T08:16:32;19.40;99.90
60353;DHT22;46196;52.970;6.954;2023-08-06T08:18:57;19.40;99.90
60353;DHT22;46196;52.970;6.954;2023-08-06T08:21:23;19.70;99.90
60353;DHT22;46196;52.970;6.954;2023-08-06T08:23:52;19.30;99.90
60353;DHT22;46196;52.970;6.954;2023-08-06T08:26:18;19.40;99.90
60353;DHT22;46196;52.970;6.954;2023-08-06T08:28:43;19.10;99.90
60353;DHT22;46196;52.970;6.954;2023-08-06T08:31:09;20.00;99.90
60353;DHT22;46196;52.970;6.954;2023-08-06T08:33:37;19.50;99.90
60353;DHT22;46196;52.970;6.954;2023-08-06T08:36:03;20.40;99.90
60353;DHT22;46196;52.970;6.954;2023-08-06T08:38:29;20.40;99.90
60353;DHT22;46196;52.970;6.954;2023-08-06T08:40:55;20.50;99.90
60353;DHT22;46196;52.970;6.954;2023-08-06T08:43:23;20.90;99.90
60353;DHT22;46196;52.970;6.954;2023-08-06T08:45:52;20.40;99.90
60353;DHT22;46196;52.970;6.954;2023-08-06T08:48:21;20.30;99.90
60353;DHT22;46196;52.970;6.954;2023-08-06T08:50:49;20.90;99.90
60353;DHT22;46196;52.970;6.954;2023-08-06T08:53:16;21.10;99.90
60353;DHT22;46196;52.970;6.954;2023-08-06T08:55:46;21.30;99.90
60353;DHT22;46196;52.970;6.954;2023-08-06T08:58:11;21.70;99.90
60353;DHT22;46196;52.970;6.954;2023-08-06T09:00:37;21.80;99.90
60353;DHT22;46196;52.970;6.954;2023-08-06T09:03:06;21.80;99.90
60353;DHT22;46196;52.970;6.954;2023-08-06T09:05:32;22.50;99.90
60353;DHT22;46196;52.970;6.954;2023-08-06T09:08:02;21.70;99.90
60353;DHT22;46196;52.970;6.954;2023-08-06T09:10:29;22.10;99.90
60353;DHT22;46196;52.970;6.954;2023-08-06T09:12:56;21.90;99.90
60353;DHT22;46196;52.970;6.954;2023-08-06T09:15:25;22.30;99.90
60353;DHT22;46196;52.970;6.954;2023-08-06T09:17:55;22.10;99.90
60353;DHT22;46196;52.970;6.954;2023-08-06T09:20:21;22.90;99.90
60353;DHT22;46196;52.970;6.954;2023-08-06T09:22:47;22.80;99.90
60353;DHT22;46196;52.970;6.954;2023-08-06T09:25:23;23.60;99.90
60353;DHT22;46196;52.970;6.954;2023-08-06T09:27:50;23.00;99.90
60353;DHT22;46196;52.970;6.954;2023-08-06T09:30:30;23.40;99.90
60353;DHT22;46196;52.970;6.954;2023-08-06T09:32:57;23.90;99.90
60353;DHT22;46196;52.970;6.954;2023-08-06T09:35:23;23.90;99.90
60353;DHT22;46196;52.970;6.954;2023-08-06T09:37:49;23.40;99.90
60353;DHT22;46196;52.970;6.954;2023-08-06T09:42:52;24.20;99.90
60353;DHT22;46196;52.970;6.954;2023-08-06T09:45:18;24.30;99.90
60353;DHT22;46196;52.970;6.954;2023-08-06T09:47:44;24.50;99.90
60353;DHT22;46196;52.970;6.954;2023-08-06T09:50:19;26.10;99.90
60353;DHT22;46196;52.970;6.954;2023-08-06T09:52:47;24.90;99.90
60353;DHT22;46196;52.970;6.954;2023-08-06T09:55:16;24.90;99.90
60353;DHT22;46196;52.970;6.954;2023-08-06T09:57:42;25.10;99.90
60353;DHT22;46196;52.970;6.954;2023-08-06T10:00:09;25.50;99.90
60353;DHT22;46196;52.970;6.954;2023-08-06T10:02:39;25.10;99.90
60353;DHT22;46196;52.970;6.954;2023-08-06T10:05:06;25.10;99.90
60353;DHT22;46196;52.970;6.954;2023-08-06T10:07:33;25.20;99.90
60353;DHT22;46196;52.970;6.954;2023-08-06T10:10:00;25.00;99.90
60353;DHT22;46196;52.970;6.954;2023-08-06T10:12:32;24.80;99.90
60353;DHT22;46196;52.970;6.954;2023-08-06T10:15:01;24.50;99.90
60353;DHT22;46196;52.970;6.954;2023-08-06T10:17:28;24.20;99.90
60353;DHT22;46196;52.970;6.954;2023-08-06T10:19:56;24.00;99.90
60353;DHT22;46196;52.970;6.954;2023-08-06T10:22:22;23.70;99.90
60353;DHT22;46196;52.970;6.954;2023-08-06T10:24:56;23.90;99.90
60353;DHT22;46196;52.970;6.954;2023-08-06T10:27:27;23.20;99.90
60353;DHT22;46196;52.970;6.954;2023-08-06T10:29:53;23.20;99.90
60353;DHT22;46196;52.970;6.954;2023-08-06T10:32:19;22.70;99.90
60353;DHT22;46196;52.970;6.954;2023-08-06T10:37:24;22.50;99.90
60353;DHT22;46196;52.970;6.954;2023-08-06T10:39:51;21.60;99.90
60353;DHT22;46196;52.970;6.954;2023-08-06T10:42:27;22.20;99.90
60353;DHT22;46196;52.970;6.954;2023-08-06T10:47:41;22.60;99.90
60353;DHT22;46196;52.970;6.954;2023-08-06T10:50:13;21.90;99.90
60353;DHT22;46196;52.970;6.954;2023-08-06T10:52:39;21.90;99.90
60353;DHT22;46196;52.970;6.954;2023-08-06T10:55:06;21.70;99.90
60353;DHT22;46196;52.970;6.954;2023-08-06T10:57:31;21.60;99.90
60353;DHT22;46196;52.970;6.954;2023-08-06T10:59:57;21.50;99.90
60353;DHT22;46196;52.970;6.954;2023-08-06T11:02:23;21.30;99.90
60353;DHT22;46196;52.970;6.954;2023-08-06T11:04:49;21.60;99.90
60353;DHT22;46196;52.970;6.954;2023-08-06T11:07:14;20.70;99.90
60353;DHT22;46196;52.970;6.954;2023-08-06T11:09:40;21.80;99.90
60353;DHT22;46196;52.970;6.954;2023-08-06T11:12:12;21.30;99.90
60353;DHT22;46196;52.970;6.954;2023-08-06T11:14:50;21.20;99.90
60353;DHT22;46196;52.970;6.954;2023-08-06T11:17:15;21.50;99.90
60353;DHT22;46196;52.970;6.954;2023-08-06T11:22:07;22.40;99.90
60353;DHT22;46196;52.970;6.954;2023-08-06T11:24:33;22.10;99.90
60353;DHT22;46196;52.970;6.954;2023-08-06T11:26:59;22.30;99.90
60353;DHT22;46196;52.970;6.954;2023-08-06T11:29:24;22.80;99.90
60353;DHT22;46196;52.970;6.954;2023-08-06T11:31:51;23.00;99.90
60353;DHT22;46196;52.970;6.954;2023-08-06T11:34:17;23.20;99.90
60353;DHT22;46196;52.970;6.954;2023-08-06T11:36:43;23.60;99.90
60353;DHT22;46196;52.970;6.954;2023-08-06T11:39:09;24.00;99.90
60353;DHT22;46196;52.970;6.954;2023-08-06T11:41:36;24.30;99.90
60353;DHT22;46196;52.970;6.954;2023-08-06T11:44:03;24.40;99.90
60353;DHT22;46196;52.970;6.954;2023-08-06T11:46:29;24.70;99.90
60353;DHT22;46196;52.970;6.954;2023-08-06T11:49:14;24.90;99.90
60353;DHT22;46196;52.970;6.954;2023-08-06T11:51:40;27.00;99.90
60353;DHT22;46196;52.970;6.954;2023-08-06T11:54:06;25.50;99.90
60353;DHT22;46196;52.970;6.954;2023-08-06T11:56:33;25.80;99.90
60353;DHT22;46196;52.970;6.954;2023-08-06T11:59:00;25.20;99.90
60353;DHT22;46196;52.970;6.954;2023-08-06T12:01:26;25.10;99.90
60353;DHT22;46196;52.970;6.954;2023-08-06T12:03:52;25.10;99.90
60353;DHT22;46196;52.970;6.954;2023-08-06T12:06:18;25.00;99.90
60353;DHT22;46196;52.970;6.954;2023-08-06T12:08:44;25.70;99.90
60353;DHT22;46196;52.970;6.954;2023-08-06T12:11:10;24.80;99.90
60353;DHT22;46196;52.970;6.954;2023-08-06T12:13:35;23.40;99.90
60353;DHT22;46196;52.970;6.954;2023-08-06T12:18:27;24.50;99.90
60353;DHT22;46196;52.970;6.954;2023-08-06T12:20:53;24.30;99.90
60353;DHT22;46196;52.970;6.954;2023-08-06T12:23:19;23.90;99.90
60353;DHT22;46196;52.970;6.954;2023-08-06T12:25:45;24.10;99.90
60353;DHT22;46196;52.970;6.954;2023-08-06T12:28:11;23.50;99.90
60353;DHT22;46196;52.970;6.954;2023-08-06T12:30:37;23.50;99.90
60353;DHT22;46196;52.970;6.954;2023-08-06T12:33:06;23.40;99.90
60353;DHT22;46196;52.970;6.954;2023-08-06T12:35:32;23.40;99.90
60353;DHT22;46196;52.970;6.954;2023-08-06T12:37:58;23.40;99.90
60353;DHT22;46196;52.970;6.954;2023-08-06T12:40:25;24.40;99.90
60353;DHT22;46196;52.970;6.954;2023-08-06T12:42:51;23.50;99.90
60353;DHT22;46196;52.970;6.954;2023-08-06T12:45:17;23.50;99.90
60353;DHT22;46196;52.970;6.954;2023-08-06T12:47:46;23.80;99.90
60353;DHT22;46196;52.970;6.954;2023-08-06T12:50:12;24.10;99.90
60353;DHT22;46196;52.970;6.954;2023-08-06T12:52:38;23.40;99.90
60353;DHT22;46196;52.970;6.954;2023-08-06T12:55:04;22.80;99.90
60353;DHT22;46196;52.970;6.954;2023-08-06T12:57:29;24.00;99.90
60353;DHT22;46196;52.970;6.954;2023-08-06T12:59:56;24.20;99.90
60353;DHT22;46196;52.970;6.954;2023-08-06T13:02:22;24.00;99.90
60353;DHT22;46196;52.970;6.954;2023-08-06T13:04:47;23.30;99.90
60353;DHT22;46196;52.970;6.954;2023-08-06T13:07:13;25.00;99.90
60353;DHT22;46196;52.970;6.954;2023-08-06T13:09:39;23.60;99.90
60353;DHT22;46196;52.970;6.954;2023-08-06T13:12:05;23.50;99.90
60353;DHT22;46196;52.970;6.954;2023-08-06T13:14:31;23.60;99.90
60353;DHT22;46196;52.970;6.954;2023-08-06T13:16:57;23.50;99.90
60353;DHT22;46196;52.970;6.954;2023-08-06T13:19:23;23.40;99.90
60353;DHT22;46196;52.970;6.954;2023-08-06T13:24:19;23.10;99.90
60353;DHT22;46196;52.970;6.954;2023-08-06T13:26:45;23.30;99.90
60353;DHT22;46196;52.970;6.954;2023-08-06T13:29:10;23.10;99.90
60353;DHT22;46196;52.970;6.954;2023-08-06T13:31:37;23.70;99.90
60353;DHT22;46196;52.970;6.954;2023-08-06T13:34:03;22.70;99.90
60353;DHT22;46196;52.970;6.954;2023-08-06T13:36:29;23.10;99.90
60353;DHT22;46196;52.970;6.954;2023-08-06T13:38:54;23.00;99.90
60353;DHT22;46196;52.970;6.954;2023-08-06T13:41:20;23.10;99.90
60353;DHT22;46196;52.970;6.954;2023-08-06T13:43:46;21.90;99.90
60353;DHT22;46196;52.970;6.954;2023-08-06T13:46:12;23.00;99.90
60353;DHT22;46196;52.970;6.954;2023-08-06T13:48:44;21.60;99.90
60353;DHT22;46196;52.970;6.954;2023-08-06T13:51:11;22.70;99.90
60353;DHT22;46196;52.970;6.954;2023-08-06T13:53:40;22.50;99.90
60353;DHT22;46196;52.970;6.954;2023-08-06T13:56:07;22.40;99.90
60353;DHT22;46196;52.970;6.954;2023-08-06T13:58:35;22.60;99.90
60353;DHT22;46196;52.970;6.954;2023-08-06T14:01:00;22.60;99.90
60353;DHT22;46196;52.970;6.954;2023-08-06T14:03:27;23.60;99.90
60353;DHT22;46196;52.970;6.954;2023-08-06T14:05:52;22.70;99.90
60353;DHT22;46196;52.970;6.954;2023-08-06T14:08:20;22.70;99.90
60353;DHT22;46196;52.970;6.954;2023-08-06T14:10:46;22.70;99.90
60353;DHT22;46196;52.970;6.954;2023-08-06T14:13:12;22.70;99.90
60353;DHT22;46196;52.970;6.954;2023-08-06T14:15:38;22.60;99.90
60353;DHT22;46196;52.970;6.954;2023-08-06T14:18:07;23.70;99.90
60353;DHT22;46196;52.970;6.954;2023-08-06T14:20:34;23.60;99.90
60353;DHT22;46196;52.970;6.954;2023-08-06T14:23:00;23.40;99.90
60353;DHT22;46196;52.970;6.954;2023-08-06T14:25:25;23.40;99.90
60353;DHT22;46196;52.970;6.954;2023-08-06T14:27:51;23.50;99.90
60353;DHT22;46196;52.970;6.954;2023-08-06T14:30:17;23.50;99.90
60353;DHT22;46196;52.970;6.954;2023-08-06T14:32:43;23.00;99.90
60353;DHT22;46196;52.970;6.954;2023-08-06T14:35:08;24.20;99.90
60353;DHT22;46196;52.970;6.954;2023-08-06T14:37:34;23.40;99.90
60353;DHT22;46196;52.970;6.954;2023-08-06T14:40:00;23.10;99.90
60353;DHT22;46196;52.970;6.954;2023-08-06T14:42:25;23.20;99.90
60353;DHT22;46196;52.970;6.954;2023-08-06T14:47:17;22.80;99.90
60353;DHT22;46196;52.970;6.954;2023-08-06T14:49:43;23.70;99.90
60353;DHT22;46196;52.970;6.954;2023-08-06T14:52:10;21.50;99.90
60353;DHT22;46196;52.970;6.954;2023-08-06T14:54:36;22.20;99.90
60353;DHT22;46196;52.970;6.954;2023-08-06T14:57:01;22.70;99.90
60353;DHT22;46196;52.970;6.954;2023-08-06T14:59:27;22.80;99.90
60353;DHT22;46196;52.970;6.954;2023-08-06T15:01:53;22.60;99.90
60353;DHT22;46196;52.970;6.954;2023-08-06T15:04:19;22.40;99.90
60353;DHT22;46196;52.970;6.954;2023-08-06T15:06:45;23.20;99.90
60353;DHT22;46196;52.970;6.954;2023-08-06T15:09:10;22.40;99.90
60353;DHT22;46196;52.970;6.954;2023-08-06T15:11:36;22.40;99.90
60353;DHT22;46196;52.970;6.954;2023-08-06T15:14:02;22.40;99.90
60353;DHT22;46196;52.970;6.954;2023-08-06T15:16:30;22.70;99.90
60353;DHT22;46196;52.970;6.954;2023-08-06T15:18:56;22.40;99.90
60353;DHT22;46196;52.970;6.954;2023-08-06T15:21:22;22.30;99.90
60353;DHT22;46196;52.970;6.954;2023-08-06T15:23:47;22.50;99.90
60353;DHT22;46196;52.970;6.954;2023-08-06T15:26:13;22.90;99.90
60353;DHT22;46196;52.970;6.954;2023-08-06T15:28:39;22.40;99.90
60353;DHT22;46196;52.970;6.954;2023-08-06T15:31:05;22.80;99.90
60353;DHT22;46196;52.970;6.954;2023-08-06T15:33:33;22.90;99.90
60353;DHT22;46196;52.970;6.954;2023-08-06T15:35:59;22.90;99.90
60353;DHT22;46196;52.970;6.954;2023-08-06T15:38:25;22.60;99.90
60353;DHT22;46196;52.970;6.954;2023-08-06T15:40:51;22.50;99.90
60353;DHT22;46196;52.970;6.954;2023-08-06T15:43:16;22.70;99.90
60353;DHT22;46196;52.970;6.954;2023-08-06T15:45:42;22.40;99.90
60353;DHT22;46196;52.970;6.954;2023-08-06T15:48:08;22.50;99.90
60353;DHT22;46196;52.970;6.954;2023-08-06T15:50:39;22.10;99.90
60353;DHT22;46196;52.970;6.954;2023-08-06T15:53:05;22.50;99.90
60353;DHT22;46196;52.970;6.954;2023-08-06T15:55:31;22.10;99.90
60353;DHT22;46196;52.970;6.954;2023-08-06T15:57:59;22.60;99.90
60353;DHT22;46196;52.970;6.954;2023-08-06T16:00:25;23.00;99.90
60353;DHT22;46196;52.970;6.954;2023-08-06T16:02:51;22.90;99.90
60353;DHT22;46196;52.970;6.954;2023-08-06T16:05:16;23.10;99.90
60353;DHT22;46196;52.970;6.954;2023-08-06T16:07:42;23.20;99.90
60353;DHT22;46196;52.970;6.954;2023-08-06T16:10:08;23.20;99.90
60353;DHT22;46196;52.970;6.954;2023-08-06T16:12:34;23.10;99.90
60353;DHT22;46196;52.970;6.954;2023-08-06T16:15:00;23.70;99.90
60353;DHT22;46196;52.970;6.954;2023-08-06T16:17:26;23.60;99.90
60353;DHT22;46196;52.970;6.954;2023-08-06T16:19:51;23.20;99.90
60353;DHT22;46196;52.970;6.954;2023-08-06T16:22:20;23.30;99.90